Time;durP1;ratioP1;P1;durP2;ratioP2;P2;SDS_P1;SDS_P2;PMS_P1;PMS_P2;Temp;Humidity;BMP_temperature;BMP_pressure;BME280_temperature;BME280_humidity;BME280_pressure;Samples;Min_cycle;Max_cycle;Signal;HPM_P1;HPM_P2
2021/04/15 00:00:45;;;;;;;7.93;2.20;;;9.10;58.50;;;;;;5014641;28;20052;-70
2021/04/15 00:03:35;;;;;;;5.47;2.20;;;9.10;58.80;;;;;;5014664;28;20030;-71
2021/04/15 00:06:13;;;;;;;5.63;2.30;;;9.00;58.10;;;;;;5014404;28;20418;-70
2021/04/15 00:08:40;;;;;;;6.23;1.70;;;9.00;58.40;;;;;;5013420;28;20084;-76
2021/04/15 00:11:05;;;;;;;6.10;2.40;;;9.00;58.70;;;;;;5014445;28;20438;-70
2021/04/15 00:13:38;;;;;;;4.67;2.17;;;8.90;58.60;;;;;;5014458;28;20084;-70
2021/04/15 00:16:04;;;;;;;5.22;2.28;;;8.90;57.90;;;;;;5014547;28;20034;-80
2021/04/15 00:18:31;;;;;;;3.43;1.70;;;8.80;58.40;;;;;;5014433;28;20530;-70
2021/04/15 00:20:57;;;;;;;3.47;2.20;;;8.80;59.40;;;;;;5013955;28;20045;-71
2021/04/15 00:23:23;;;;;;;4.40;2.13;;;8.80;59.30;;;;;;5029355;28;20030;-70
2021/04/15 00:25:49;;;;;;;5.27;2.50;;;8.70;59.00;;;;;;5014451;28;20088;-77
2021/04/15 00:28:15;;;;;;;5.20;2.33;;;8.70;59.00;;;;;;5013975;28;20478;-70
2021/04/15 00:30:41;;;;;;;3.30;2.40;;;8.70;59.70;;;;;;5014266;28;20486;-70
2021/04/15 00:33:08;;;;;;;3.37;2.03;;;8.70;59.90;;;;;;5014147;28;20018;-70
2021/04/15 00:35:37;;;;;;;5.77;2.57;;;8.70;59.50;;;;;;5014322;28;20057;-70
2021/04/15 00:38:04;;;;;;;5.27;2.90;;;8.60;59.90;;;;;;5013904;28;20076;-70
2021/04/15 00:40:31;;;;;;;5.67;2.70;;;8.60;59.50;;;;;;5013998;28;20044;-71
2021/04/15 00:42:57;;;;;;;4.10;2.60;;;8.60;59.80;;;;;;5013824;28;20072;-70
2021/04/15 00:45:29;;;;;;;7.57;2.87;;;8.60;60.20;;;;;;5013130;28;20026;-70
2021/04/15 00:48:01;;;;;;;5.97;2.78;;;8.60;61.30;;;;;;5014024;28;20029;-70
2021/04/15 00:50:32;;;;;;;5.17;2.60;;;8.60;60.90;;;;;;5013510;28;20517;-79
2021/04/15 00:53:03;;;;;;;5.57;2.30;;;8.60;60.10;;;;;;5013897;28;20036;-78
2021/04/15 00:55:31;;;;;;;8.73;2.97;;;8.50;61.40;;;;;;5013926;28;20101;-79
2021/04/15 00:57:59;;;;;;;7.13;2.60;;;8.50;61.00;;;;;;5012615;28;20061;-70
2021/04/15 01:00:27;;;;;;;7.90;2.60;;;8.60;61.00;;;;;;5010723;28;20042;-71
2021/04/15 01:02:59;;;;;;;13.67;3.10;;;8.50;60.10;;;;;;5010788;28;20433;-70
2021/04/15 01:05:37;;;;;;;5.03;3.00;;;8.50;61.40;;;;;;5012469;28;20505;-70
2021/04/15 01:08:04;;;;;;;6.50;3.00;;;8.50;61.00;;;;;;5013562;28;20037;-70
2021/04/15 01:10:35;;;;;;;4.90;2.87;;;8.50;61.00;;;;;;5013247;28;20018;-71
2021/04/15 01:13:09;;;;;;;6.33;3.10;;;8.50;60.60;;;;;;5013278;28;20382;-71
2021/04/15 01:15:52;;;;;;;4.60;2.70;;;8.50;61.20;;;;;;5013491;28;20018;-71
2021/04/15 01:18:25;;;;;;;5.80;2.40;;;8.50;61.50;;;;;;5013483;28;20360;-70
2021/04/15 01:21:31;;;;;;;5.10;2.47;;;8.50;60.60;;;;;;5011895;28;20427;-71
2021/04/15 01:24:04;;;;;;;6.50;2.90;;;8.50;59.30;;;;;;5012724;28;20367;-80
2021/04/15 01:27:07;;;;;;;13.37;2.60;;;8.50;59.70;;;;;;5013078;28;20109;-78
2021/04/15 01:30:12;;;;;;;6.40;2.83;;;8.40;61.10;;;;;;5013250;28;20026;-70
2021/04/15 01:32:50;;;;;;;5.00;2.50;;;8.40;60.50;;;;;;5012446;28;20022;-71
2021/04/15 01:35:47;;;;;;;7.03;2.97;;;8.30;60.90;;;;;;5012199;28;20383;-70
2021/04/15 01:38:25;;;;;;;6.27;2.60;;;8.20;61.60;;;;;;5018991;28;20042;-71
2021/04/15 01:40:59;;;;;;;5.67;2.93;;;8.20;61.80;;;;;;5019454;28;20049;-80
2021/04/15 01:43:47;;;;;;;7.07;2.87;;;8.20;61.70;;;;;;5019431;28;20022;-71
2021/04/15 01:46:16;;;;;;;8.43;2.90;;;8.10;62.10;;;;;;5019828;28;20018;-79
2021/04/15 01:48:49;;;;;;;4.80;2.23;;;8.10;63.10;;;;;;5019699;28;20374;-70
2021/04/15 01:51:53;;;;;;;4.72;2.58;;;8.10;61.40;;;;;;5019208;28;20383;-80
2021/04/15 01:54:33;;;;;;;4.90;1.93;;;8.20;60.40;;;;;;5017341;28;20036;-71
2021/04/15 01:57:05;;;;;;;3.53;2.13;;;8.10;59.70;;;;;;5017524;28;20037;-70
2021/04/15 01:59:38;;;;;;;5.97;2.20;;;8.00;61.30;;;;;;5018390;28;20046;-70
2021/04/15 02:02:17;;;;;;;11.18;2.10;;;8.00;62.30;;;;;;5019353;28;20022;-71
2021/04/15 02:04:51;;;;;;;7.47;2.40;;;7.90;61.00;;;;;;5019390;28;20022;-79
2021/04/15 02:07:19;;;;;;;12.73;2.60;;;7.80;61.20;;;;;;5019604;28;20026;-79
2021/04/15 02:09:48;;;;;;;7.50;2.30;;;7.80;63.10;;;;;;5018211;28;20076;-71
2021/04/15 02:12:24;;;;;;;16.50;2.53;;;7.80;63.70;;;;;;5017785;28;20030;-71
2021/04/15 02:15:03;;;;;;;13.30;2.27;;;7.80;62.30;;;;;;5019220;28;20464;-71
2021/04/15 02:17:37;;;;;;;8.70;2.27;;;7.70;61.90;;;;;;5019594;28;20034;-71
2021/04/15 02:20:24;;;;;;;9.33;2.17;;;7.70;61.90;;;;;;5019160;28;20072;-72
2021/04/15 02:23:14;;;;;;;4.00;2.10;;;7.60;61.30;;;;;;5019152;28;20049;-70
2021/04/15 02:25:45;;;;;;;3.97;2.30;;;7.60;62.10;;;;;;5019368;28;20037;-70
2021/04/15 02:28:17;;;;;;;5.13;2.03;;;7.60;63.20;;;;;;5019278;28;20060;-70
2021/04/15 02:30:54;;;;;;;8.68;2.67;;;7.50;62.40;;;;;;5019584;28;20073;-70
2021/04/15 02:33:34;;;;;;;7.63;2.77;;;7.50;62.80;;;;;;5019281;28;20687;-69
2021/04/15 02:36:02;;;;;;;5.23;2.33;;;7.50;63.80;;;;;;5019451;28;20034;-78
2021/04/15 02:38:53;;;;;;;6.43;2.20;;;7.40;64.20;;;;;;5019388;28;20068;-78
2021/04/15 02:41:27;;;;;;;9.73;3.43;;;7.30;64.10;;;;;;5017379;28;20042;-70
2021/04/15 02:44:01;;;;;;;4.40;2.27;;;7.40;64.40;;;;;;5019248;28;20470;-70
2021/04/15 02:46:32;;;;;;;7.70;2.20;;;7.30;64.60;;;;;;5018217;28;20486;-71
2021/04/15 02:49:03;;;;;;;5.40;2.20;;;7.30;64.40;;;;;;5014429;28;20022;-77
2021/04/15 02:51:34;;;;;;;6.80;2.30;;;7.30;65.20;;;;;;5015775;28;20060;-73
2021/04/15 02:54:23;;;;;;;4.77;2.53;;;7.20;65.20;;;;;;5016010;28;20554;-70
2021/04/15 02:56:54;;;;;;;3.13;2.00;;;7.20;66.00;;;;;;5015677;28;20077;-70
2021/04/15 02:59:36;;;;;;;5.27;2.17;;;7.20;65.30;;;;;;5015673;28;20092;-79
2021/04/15 03:02:08;;;;;;;4.10;2.20;;;7.10;65.00;;;;;;5016137;28;20033;-70
2021/04/15 03:04:38;;;;;;;4.32;2.30;;;7.10;64.60;;;;;;5016062;28;20025;-70
2021/04/15 03:07:05;;;;;;;7.80;2.90;;;7.20;65.60;;;;;;5015546;28;20030;-70
2021/04/15 03:09:34;;;;;;;6.63;2.33;;;7.10;65.60;;;;;;5015283;28;20029;-78
2021/04/15 03:12:28;;;;;;;4.50;2.70;;;7.10;66.30;;;;;;5015605;28;20026;-70
2021/04/15 03:15:22;;;;;;;3.83;2.10;;;7.10;67.90;;;;;;5015547;28;20018;-69
2021/04/15 03:17:52;;;;;;;7.73;2.47;;;7.10;66.50;;;;;;5015190;28;20034;-70
2021/04/15 03:20:45;;;;;;;9.13;2.70;;;7.10;65.00;;;;;;5014285;28;20033;-71
2021/04/15 03:23:54;;;;;;;11.30;2.77;;;7.10;65.50;;;;;;5012918;28;20045;-70
2021/04/15 03:26:35;;;;;;;3.57;2.37;;;7.00;65.40;;;;;;5015645;28;20072;-70
2021/04/15 03:29:16;;;;;;;7.20;2.90;;;7.00;65.70;;;;;;5015378;28;20053;-75
2021/04/15 03:31:48;;;;;;;6.67;2.87;;;7.00;65.50;;;;;;5015608;28;20022;-79
2021/04/15 03:34:23;;;;;;;3.58;2.35;;;7.00;66.00;;;;;;5015273;28;20463;-70
2021/04/15 03:36:53;;;;;;;5.33;2.30;;;7.10;65.70;;;;;;5015221;28;20056;-70
2021/04/15 03:39:33;;;;;;;11.33;2.53;;;7.10;67.10;;;;;;5015021;28;20421;-79
2021/04/15 03:42:25;;;;;;;7.13;2.30;;;7.10;66.90;;;;;;5015101;28;20054;-70
2021/04/15 03:44:57;;;;;;;7.68;2.50;;;7.10;67.50;;;;;;5013636;28;20038;-71
2021/04/15 03:47:32;;;;;;;6.33;2.07;;;7.10;66.70;;;;;;5015168;28;20033;-69
2021/04/15 03:50:00;;;;;;;5.93;2.37;;;7.10;66.20;;;;;;5015103;28;20057;-79
2021/04/15 03:52:41;;;;;;;3.20;1.97;;;7.10;67.50;;;;;;5014917;28;20040;-71
2021/04/15 03:55:25;;;;;;;5.57;2.30;;;7.10;67.50;;;;;;5014947;28;20101;-75
2021/04/15 03:57:57;;;;;;;4.67;2.20;;;7.10;66.70;;;;;;5013488;28;20041;-78
2021/04/15 04:00:30;;;;;;;6.28;2.38;;;7.10;65.80;;;;;;5012508;28;20034;-71
2021/04/15 04:03:06;;;;;;;6.25;2.05;;;7.10;65.70;;;;;;5013888;28;20105;-71
2021/04/15 04:05:40;;;;;;;3.83;2.10;;;7.00;66.80;;;;;;5014478;28;20030;-70
2021/04/15 04:08:12;;;;;;;5.93;2.10;;;7.00;67.60;;;;;;5014894;28;20017;-79
2021/04/15 04:10:40;;;;;;;3.90;2.00;;;7.00;66.70;;;;;;5014808;28;20109;-80
2021/04/15 04:13:28;;;;;;;4.13;2.50;;;7.00;66.90;;;;;;5014560;28;20057;-81
2021/04/15 04:16:01;;;;;;;5.70;2.03;;;7.00;67.20;;;;;;5014253;28;20087;-70
2021/04/15 04:18:31;;;;;;;3.97;2.13;;;7.00;66.90;;;;;;5014343;28;20052;-70
2021/04/15 04:21:34;;;;;;;4.27;2.00;;;7.00;66.70;;;;;;5014138;28;20092;-78
2021/04/15 04:24:31;;;;;;;3.78;2.10;;;7.00;66.60;;;;;;5014411;28;20022;-70
2021/04/15 04:27:04;;;;;;;4.63;1.87;;;7.00;66.40;;;;;;5014436;28;20476;-79
2021/04/15 04:29:38;;;;;;;;;;;7.00;66.20;;;;;;5014819;28;20022;-70
2021/04/15 04:32:10;;;;;;;5.10;2.17;;;6.90;67.50;;;;;;5014101;28;19959;-70
2021/04/15 04:34:37;;;;;;;3.78;2.47;;;6.90;67.00;;;;;;5013923;28;20375;-70
2021/04/15 04:37:04;;;;;;;7.47;2.33;;;6.90;67.30;;;;;;5013325;28;20041;-70
2021/04/15 04:39:31;;;;;;;8.93;2.33;;;6.90;67.70;;;;;;5013289;28;20026;-70
2021/04/15 04:42:05;;;;;;;4.60;2.20;;;6.80;67.70;;;;;;5013855;28;20037;-81
2021/04/15 04:44:51;;;;;;;6.00;2.63;;;6.90;67.10;;;;;;5013778;28;20053;-70
2021/04/15 04:47:34;;;;;;;5.77;2.40;;;6.80;65.50;;;;;;5013507;28;20036;-70
2021/04/15 04:50:03;;;;;;;;;;;6.80;65.50;;;;;;5013806;28;20054;-70
2021/04/15 04:52:31;;;;;;;10.70;2.67;;;6.80;67.60;;;;;;5013854;28;19906;-70
2021/04/15 04:54:59;;;;;;;7.23;2.60;;;6.80;66.90;;;;;;5013797;28;20057;-70
2021/04/15 04:57:30;;;;;;;7.23;2.80;;;6.80;65.60;;;;;;5014137;28;20022;-81
2021/04/15 05:00:02;;;;;;;5.83;2.60;;;6.70;65.80;;;;;;5013493;28;20022;-70
2021/04/15 05:02:28;;;;;;;6.60;2.73;;;6.80;65.20;;;;;;5014055;28;20029;-80
2021/04/15 05:05:04;;;;;;;7.40;2.83;;;6.80;65.20;;;;;;5013712;28;20030;-70
2021/04/15 05:07:32;;;;;;;9.13;2.63;;;6.80;66.50;;;;;;5013371;28;20084;-71
2021/04/15 05:09:58;;;;;;;8.13;2.43;;;6.80;66.80;;;;;;5013398;28;20455;-81
2021/04/15 05:12:31;;;;;;;5.07;2.60;;;6.80;65.70;;;;;;5012297;28;20109;-71
2021/04/15 05:14:58;;;;;;;8.87;3.20;;;6.80;67.00;;;;;;5011610;28;20026;-71
2021/04/15 05:17:31;;;;;;;8.00;3.07;;;6.80;66.50;;;;;;5011215;28;20025;-70
2021/04/15 05:20:04;;;;;;;15.17;2.80;;;6.80;66.60;;;;;;5012453;28;20120;-71
2021/04/15 05:22:35;;;;;;;6.07;2.53;;;6.80;66.20;;;;;;5011801;28;20022;-70
2021/04/15 05:25:24;;;;;;;13.30;2.97;;;6.90;66.40;;;;;;5012366;28;20437;-75
2021/04/15 05:27:51;;;;;;;4.13;2.43;;;6.90;67.40;;;;;;5012740;28;20066;-70
2021/04/15 05:30:28;;;;;;;4.40;2.40;;;7.00;66.50;;;;;;5012530;28;20026;-80
2021/04/15 05:33:00;;;;;;;7.90;2.60;;;7.00;65.40;;;;;;5012499;28;20054;-75
2021/04/15 05:35:31;;;;;;;7.73;2.63;;;7.00;64.90;;;;;;5016578;28;20080;-70
2021/04/15 05:37:56;;;;;;;8.67;2.57;;;7.10;65.90;;;;;;5019599;28;20061;-72
2021/04/15 05:40:22;;;;;;;5.67;2.50;;;7.10;65.30;;;;;;5013366;28;20446;-70
2021/04/15 05:43:21;;;;;;;4.10;2.33;;;7.20;65.50;;;;;;5011516;28;20065;-69
2021/04/15 05:45:50;;;;;;;4.43;2.40;;;7.30;65.00;;;;;;5013091;28;20026;-81
2021/04/15 05:48:18;;;;;;;7.40;2.60;;;7.30;64.10;;;;;;5013394;28;20441;-70
2021/04/15 05:50:51;;;;;;;6.53;2.47;;;7.40;64.40;;;;;;5008924;28;20564;-70
2021/04/15 05:53:26;;;;;;;4.63;1.97;;;7.40;64.00;;;;;;5013029;28;20026;-70
2021/04/15 05:56:07;;;;;;;4.60;2.07;;;7.50;63.90;;;;;;5012578;28;20034;-71
2021/04/15 05:59:13;;;;;;;6.33;2.23;;;7.50;63.70;;;;;;5012582;28;20049;-70
2021/04/15 06:01:51;;;;;;;4.17;2.33;;;7.60;64.40;;;;;;5012528;28;20510;-70
2021/04/15 06:04:16;;;;;;;11.90;2.53;;;7.60;63.80;;;;;;5012174;28;20044;-75
2021/04/15 06:06:43;;;;;;;7.93;2.40;;;7.60;63.00;;;;;;5012529;28;20026;-71
2021/04/15 06:09:09;;;;;;;3.10;2.10;;;7.70;62.50;;;;;;5011379;28;20036;-70
2021/04/15 06:12:02;;;;;;;3.53;2.00;;;7.70;60.80;;;;;;5012158;28;20034;-70
2021/04/15 06:14:31;;;;;;;5.07;2.30;;;7.70;61.20;;;;;;5012576;28;20105;-73
2021/04/15 06:17:36;;;;;;;4.40;2.23;;;7.80;60.50;;;;;;5013221;28;20101;-82
2021/04/15 06:20:13;;;;;;;7.57;2.33;;;7.80;60.70;;;;;;4990953;28;20046;-80
2021/04/15 06:22:43;;;;;;;4.40;2.40;;;7.80;60.00;;;;;;5013475;28;20030;-76
2021/04/15 06:25:22;;;;;;;5.30;2.73;;;7.90;59.60;;;;;;5019360;28;20057;-72
2021/04/15 06:27:49;;;;;;;5.90;2.50;;;7.90;60.00;;;;;;5035881;28;20508;-70
2021/04/15 06:31:06;;;;;;;4.30;2.77;;;8.00;60.40;;;;;;5035531;28;20026;-80
2021/04/15 06:33:33;;;;;;;8.33;2.30;;;8.10;60.30;;;;;;4993522;28;20026;-79
2021/04/15 06:36:00;;;;;;;8.77;2.63;;;8.10;60.10;;;;;;4993985;28;20035;-78
2021/04/15 06:38:37;;;;;;;4.57;2.10;;;8.10;58.80;;;;;;5017148;28;20378;-79
2021/04/15 06:41:27;;;;;;;6.23;2.43;;;8.20;58.70;;;;;;5035306;28;20116;-72
2021/04/15 06:44:12;;;;;;;3.70;1.77;;;8.30;58.90;;;;;;5035582;28;20029;-78
2021/04/15 06:47:00;;;;;;;10.27;2.73;;;8.30;58.20;;;;;;5034876;28;20030;-78
2021/04/15 06:50:03;;;;;;;4.80;2.00;;;8.30;56.30;;;;;;5014476;28;20026;-72
2021/04/15 06:52:48;;;;;;;4.78;2.20;;;8.40;56.90;;;;;;5013803;28;20049;-71
2021/04/15 06:55:29;;;;;;;5.40;2.00;;;8.50;57.10;;;;;;5014772;28;20022;-76
2021/04/15 06:58:09;;;;;;;3.90;2.00;;;8.60;55.60;;;;;;5014948;28;20113;-69
2021/04/15 07:01:02;;;;;;;3.50;2.03;;;8.70;56.30;;;;;;5014786;28;20513;-70
2021/04/15 07:04:00;;;;;;;4.70;2.10;;;8.70;56.00;;;;;;5015375;28;20390;-73
2021/04/15 07:06:46;;;;;;;4.70;2.20;;;8.90;54.70;;;;;;5015389;28;20471;-70
2021/04/15 07:09:50;;;;;;;4.50;1.97;;;8.90;53.80;;;;;;5015093;28;20129;-69
2021/04/15 07:12:28;;;;;;;;;;;9.00;54.70;;;;;;5015686;28;20026;-69
2021/04/15 07:15:02;;;;;;;3.90;1.80;;;9.10;52.60;;;;;;5013753;28;19913;-70
2021/04/15 07:17:43;;;;;;;4.97;1.90;;;9.20;52.30;;;;;;5013570;28;20096;-68
2021/04/15 07:20:27;;;;;;;3.80;2.10;;;9.30;51.90;;;;;;5012706;28;20224;-78
2021/04/15 07:23:18;;;;;;;3.70;2.03;;;9.40;50.80;;;;;;5012928;28;20433;-77
2021/04/15 07:26:09;;;;;;;3.00;1.73;;;9.50;51.50;;;;;;5015356;28;20033;-73
2021/04/15 07:28:44;;;;;;;4.43;1.80;;;9.60;51.10;;;;;;5015276;28;20022;-69
2021/04/15 07:31:18;;;;;;;4.00;2.20;;;9.60;50.30;;;;;;5014910;28;20030;-70
2021/04/15 07:33:52;;;;;;;5.27;1.90;;;9.70;51.30;;;;;;5014046;28;20472;-78
2021/04/15 07:36:43;;;;;;;6.70;2.17;;;9.70;49.90;;;;;;5014993;28;20113;-79
2021/04/15 07:39:39;;;;;;;7.87;1.80;;;9.80;49.10;;;;;;5015050;28;20058;-80
2021/04/15 07:42:50;;;;;;;2.80;1.60;;;9.90;49.90;;;;;;5014961;28;20030;-76
2021/04/15 07:45:26;;;;;;;4.13;1.70;;;10.00;50.20;;;;;;5013704;28;20034;-75
2021/04/15 07:48:13;;;;;;;3.50;1.80;;;10.20;50.30;;;;;;5014424;28;20080;-75
2021/04/15 07:51:02;;;;;;;5.80;2.00;;;10.30;47.30;;;;;;5014512;28;20541;-68
2021/04/15 07:53:36;;;;;;;11.50;2.10;;;10.30;45.90;;;;;;5014936;28;20018;-77
2021/04/15 07:56:32;;;;;;;4.40;1.70;;;10.30;47.40;;;;;;5014876;28;20471;-73
2021/04/15 07:59:16;;;;;;;7.00;1.93;;;10.30;48.20;;;;;;5014548;28;20478;-69
2021/04/15 08:02:27;;;;;;;3.53;1.70;;;10.40;48.50;;;;;;5014067;28;20034;-76
2021/04/15 08:05:04;;;;;;;4.60;2.03;;;10.40;49.30;;;;;;5014183;28;20038;-76
2021/04/15 08:07:59;;;;;;;5.23;2.07;;;10.40;48.00;;;;;;5014204;28;20026;-78
2021/04/15 08:11:07;;;;;;;3.53;1.93;;;10.40;47.80;;;;;;5014193;28;20030;-77
2021/04/15 08:13:57;;;;;;;3.97;2.20;;;10.50;46.60;;;;;;5012396;28;20026;-76
2021/04/15 08:16:46;;;;;;;7.63;3.27;;;10.50;45.50;;;;;;5014454;28;20026;-68
2021/04/15 08:19:33;;;;;;;4.07;2.10;;;10.50;45.40;;;;;;5014506;28;20029;-68
2021/04/15 08:22:14;;;;;;;5.63;1.90;;;10.50;45.70;;;;;;5014474;28;20058;-69
2021/04/15 08:25:22;;;;;;;7.83;2.00;;;10.40;43.70;;;;;;5014182;28;20521;-72
2021/04/15 08:28:02;;;;;;;3.87;2.10;;;10.50;44.80;;;;;;5011217;28;20038;-78
2021/04/15 08:30:36;;;;;;;3.73;2.00;;;10.50;45.80;;;;;;5014176;28;20093;-76
2021/04/15 08:33:17;;;;;;;8.60;2.63;;;10.60;45.90;;;;;;5013077;28;20058;-67
2021/04/15 08:35:58;;;;;;;4.77;2.10;;;10.60;46.30;;;;;;5013698;28;20022;-74
2021/04/15 08:38:24;;;;;;;5.90;2.30;;;10.70;46.80;;;;;;5014447;28;20073;-67
2021/04/15 08:40:55;;;;;;;5.30;2.03;;;10.70;45.10;;;;;;5014421;28;20574;-70
2021/04/15 08:43:24;;;;;;;11.83;2.13;;;10.80;45.00;;;;;;5014064;28;20022;-67
2021/04/15 08:46:15;;;;;;;3.93;1.80;;;10.90;45.90;;;;;;5012162;28;20428;-69
2021/04/15 08:49:00;;;;;;;7.40;2.20;;;10.90;45.80;;;;;;5013360;28;20037;-74
2021/04/15 08:51:53;;;;;;;5.30;2.00;;;11.00;45.10;;;;;;5013669;28;20042;-68
2021/04/15 08:54:31;;;;;;;6.80;2.00;;;11.10;44.80;;;;;;5020884;28;20061;-68
2021/04/15 08:57:05;;;;;;;4.38;2.00;;;11.30;45.10;;;;;;5025894;28;20029;-68
2021/04/15 08:59:55;;;;;;;5.35;2.35;;;11.40;46.30;;;;;;5023442;28;20470;-68
2021/04/15 09:02:30;;;;;;;4.20;2.03;;;11.50;44.20;;;;;;5033368;28;20025;-71
2021/04/15 09:05:20;;;;;;;4.70;2.20;;;11.60;44.60;;;;;;5033367;28;20028;-71
2021/04/15 09:07:57;;;;;;;2.97;1.90;;;11.70;41.50;;;;;;5033756;28;20482;-71
2021/04/15 09:10:31;;;;;;;3.10;2.13;;;11.80;42.40;;;;;;5033060;28;20036;-76
2021/04/15 09:13:28;;;;;;;5.15;1.88;;;11.80;40.90;;;;;;5033169;28;20100;-67
2021/04/15 09:16:23;;;;;;;4.10;1.80;;;11.90;43.00;;;;;;5033699;28;20025;-67
2021/04/15 09:19:26;;;;;;;6.88;2.35;;;12.00;42.50;;;;;;5025435;28;20043;-67
2021/04/15 09:22:10;;;;;;;4.35;2.00;;;12.00;40.90;;;;;;5031155;28;20498;-67
2021/04/15 09:25:05;;;;;;;4.63;1.90;;;12.10;40.10;;;;;;5031976;28;20098;-67
2021/04/15 09:27:56;;;;;;;4.65;1.50;;;12.10;43.40;;;;;;5030402;28;20068;-67
2021/04/15 09:30:36;;;;;;;4.85;2.10;;;12.20;40.90;;;;;;5033183;28;20036;-67
2021/04/15 09:33:50;;;;;;;3.15;1.67;;;12.30;41.30;;;;;;5033197;28;20028;-67
2021/04/15 09:36:15;;;;;;;;;;;12.30;41.10;;;;;;5014583;28;20181;-67
2021/04/15 09:38:50;;;;;;;4.10;1.95;;;12.40;38.50;;;;;;5033137;28;20346;-67
2021/04/15 09:42:00;;;;;;;3.30;1.80;;;12.50;39.00;;;;;;5033189;28;20048;-67
2021/04/15 09:44:36;;;;;;;3.75;1.88;;;12.50;40.10;;;;;;5033266;28;20022;-67
2021/04/15 09:47:29;;;;;;;4.47;1.80;;;12.60;38.60;;;;;;5033304;28;20083;-68
2021/04/15 09:50:18;;;;;;;3.28;1.77;;;12.60;41.60;;;;;;5032633;28;20481;-67
2021/04/15 09:53:05;;;;;;;4.85;1.80;;;12.70;40.20;;;;;;5033124;28;20017;-67
2021/04/15 09:55:35;;;;;;;6.45;2.20;;;12.70;41.50;;;;;;5033160;28;20029;-67
2021/04/15 09:58:15;;;;;;;4.55;1.80;;;12.80;41.40;;;;;;5035547;28;20396;-68
2021/04/15 10:00:50;;;;;;;3.22;1.83;;;12.80;40.40;;;;;;5036872;28;20040;-68
2021/04/15 10:03:30;;;;;;;3.00;1.58;;;12.90;39.40;;;;;;5035508;28;20093;-68
2021/04/15 10:06:18;;;;;;;2.25;1.60;;;13.00;39.50;;;;;;5036979;28;20031;-67
2021/04/15 10:08:56;;;;;;;4.22;1.80;;;13.00;39.80;;;;;;5036908;28;20021;-68
2021/04/15 10:11:33;;;;;;;3.30;1.75;;;13.10;38.30;;;;;;5036538;28;20026;-67
2021/04/15 10:14:24;;;;;;;3.10;1.98;;;13.00;38.60;;;;;;5036652;28;20024;-67
2021/04/15 10:16:54;;;;;;;3.55;2.08;;;13.10;38.20;;;;;;5036257;28;20138;-68
2021/04/15 10:19:51;;;;;;;3.78;2.00;;;13.00;36.70;;;;;;5036530;28;20366;-67
2021/04/15 10:22:37;;;;;;;7.00;1.80;;;13.00;39.10;;;;;;5036479;28;20037;-69
2021/04/15 10:25:11;;;;;;;3.80;1.92;;;12.90;38.60;;;;;;5036438;28;20036;-71
2021/04/15 10:27:44;;;;;;;5.75;2.28;;;12.90;39.40;;;;;;5036254;28;20028;-68
2021/04/15 10:30:15;;;;;;;;;;;13.00;39.40;;;;;;5036906;28;20029;-69
2021/04/15 10:33:02;;;;;;;2.90;1.77;;;13.20;36.70;;;;;;5036153;28;19905;-68
2021/04/15 10:35:51;;;;;;;2.53;1.90;;;13.30;38.40;;;;;;5036579;28;20078;-68
2021/04/15 10:38:35;;;;;;;2.38;1.58;;;13.50;37.90;;;;;;5036104;28;20033;-68
2021/04/15 10:41:37;;;;;;;2.95;1.73;;;13.60;36.90;;;;;;5035933;28;20030;-68
2021/04/15 10:44:15;;;;;;;4.43;1.75;;;13.70;39.10;;;;;;5035957;28;20029;-67
2021/04/15 10:46:44;;;;;;;3.65;1.80;;;13.80;37.50;;;;;;5035779;28;20544;-68
2021/04/15 10:49:30;;;;;;;4.95;2.08;;;13.70;35.60;;;;;;5036002;28;20028;-68
2021/04/15 10:52:15;;;;;;;4.32;1.80;;;13.70;36.90;;;;;;5035913;28;20555;-68
2021/04/15 10:54:43;;;;;;;2.95;1.88;;;13.60;35.70;;;;;;5035932;28;20045;-68
2021/04/15 10:57:31;;;;;;;3.00;1.70;;;13.40;34.90;;;;;;5035928;28;20033;-68
2021/04/15 11:00:37;;;;;;;4.03;1.75;;;13.30;36.00;;;;;;5035425;28;20034;-68
2021/04/15 11:03:24;;;;;;;3.80;1.77;;;13.20;35.30;;;;;;5035309;28;20401;-68
2021/04/15 11:05:54;;;;;;;4.40;2.15;;;13.20;37.90;;;;;;5035767;28;20032;-68
2021/04/15 11:08:27;;;;;;;4.65;2.17;;;13.30;40.30;;;;;;5034893;28;20037;-68
2021/04/15 11:11:19;;;;;;;8.18;2.17;;;13.40;41.70;;;;;;5035575;28;20028;-67
2021/04/15 11:13:47;;;;;;;4.50;2.20;;;13.50;40.40;;;;;;5035776;28;20098;-68
2021/04/15 11:16:22;;;;;;;3.53;1.92;;;13.60;40.60;;;;;;5035579;28;20041;-67
2021/04/15 11:18:50;;;;;;;3.80;2.00;;;13.80;40.00;;;;;;5035614;28;20021;-67
2021/04/15 11:21:32;;;;;;;3.65;1.83;;;13.90;41.50;;;;;;5035169;28;20489;-68
2021/04/15 11:24:27;;;;;;;2.80;1.92;;;14.00;38.10;;;;;;5035483;28;20032;-68
2021/04/15 11:26:58;;;;;;;4.93;2.28;;;14.00;35.50;;;;;;5035146;28;20037;-67
2021/04/15 11:29:43;;;;;;;2.92;1.85;;;13.90;36.00;;;;;;5034774;28;20021;-70
2021/04/15 11:32:30;;;;;;;2.40;1.80;;;13.90;38.40;;;;;;5034873;28;20478;-67
2021/04/15 11:35:17;;;;;;;3.55;1.90;;;13.90;39.70;;;;;;5034283;28;20025;-68
2021/04/15 11:37:45;;;;;;;4.40;1.85;;;13.80;40.00;;;;;;5034726;28;20108;-68
2021/04/15 11:40:19;;;;;;;7.55;3.25;;;13.80;39.20;;;;;;5034642;28;20033;-70
2021/04/15 11:42:45;;;;;;;4.57;1.98;;;13.80;40.00;;;;;;5033549;28;20025;-68
2021/04/15 11:45:24;;;;;;;3.33;2.10;;;13.80;40.10;;;;;;5034963;28;20025;-70
2021/04/15 11:47:50;;;;;;;2.92;1.98;;;13.80;38.40;;;;;;5034904;28;20021;-67
2021/04/15 11:50:20;;;;;;;8.18;3.67;;;13.90;38.70;;;;;;5034877;28;20053;-67
2021/04/15 11:52:49;;;;;;;3.25;1.98;;;14.00;39.50;;;;;;5034782;28;20017;-68
2021/04/15 11:55:35;;;;;;;3.65;2.03;;;14.10;39.70;;;;;;5034463;28;20028;-68
2021/04/15 11:58:09;;;;;;;4.30;2.08;;;14.20;36.70;;;;;;5034803;28;20386;-68
2021/04/15 12:00:41;;;;;;;4.18;2.15;;;14.10;36.90;;;;;;5034772;28;20025;-67
2021/04/15 12:03:16;;;;;;;3.17;2.10;;;14.20;37.70;;;;;;5034442;28;20493;-67
2021/04/15 12:05:48;;;;;;;3.75;2.03;;;14.10;37.10;;;;;;5034640;28;20030;-68
2021/04/15 12:08:26;;;;;;;4.90;2.53;;;14.20;38.40;;;;;;5033799;28;20025;-67
2021/04/15 12:11:01;;;;;;;3.28;1.80;;;14.20;37.80;;;;;;5034433;28;20675;-68
2021/04/15 12:13:40;;;;;;;2.72;1.55;;;14.20;36.80;;;;;;5034245;28;20108;-68
2021/04/15 12:16:14;;;;;;;10.38;2.15;;;14.30;36.20;;;;;;5031954;28;20389;-68
2021/04/15 12:19:06;;;;;;;4.10;2.45;;;14.30;37.00;;;;;;5027105;28;20033;-68
2021/04/15 12:21:51;;;;;;;4.80;1.98;;;14.40;35.30;;;;;;5033760;28;20132;-68
2021/04/15 12:24:27;;;;;;;5.53;2.15;;;14.40;37.80;;;;;;5034292;28;20030;-68
2021/04/15 12:26:58;;;;;;;4.85;2.20;;;14.40;39.30;;;;;;5034111;28;20032;-68
2021/04/15 12:29:50;;;;;;;2.55;1.80;;;14.40;39.50;;;;;;5033811;28;20096;-67
2021/04/15 12:32:34;;;;;;;6.93;2.17;;;14.50;39.00;;;;;;5025137;28;20037;-68
2021/04/15 12:35:18;;;;;;;2.92;1.80;;;14.50;39.20;;;;;;5033178;28;20309;-68
2021/04/15 12:38:00;;;;;;;2.85;1.98;;;14.50;38.90;;;;;;5033594;28;20021;-68
2021/04/15 12:40:29;;;;;;;;;;;14.50;39.10;;;;;;5033679;28;20068;-69
2021/04/15 12:43:00;;;;;;;2.53;1.95;;;14.40;37.30;;;;;;5033503;28;19905;-68
2021/04/15 12:45:44;;;;;;;6.75;2.15;;;14.50;39.40;;;;;;5032194;28;20450;-69
2021/04/15 12:48:19;;;;;;;6.60;1.80;;;14.40;35.40;;;;;;5032992;28;20497;-68
2021/04/15 12:50:45;;;;;;;3.75;1.92;;;14.40;35.40;;;;;;5032052;28;20064;-68
2021/04/15 12:53:13;;;;;;;25.50;2.45;;;14.40;37.90;;;;;;5033302;28;20025;-67
2021/04/15 12:55:39;;;;;;;3.70;1.77;;;14.40;38.00;;;;;;5032068;28;20512;-68
2021/04/15 12:58:08;;;;;;;5.07;2.10;;;14.40;37.90;;;;;;5032921;28;20022;-67
2021/04/15 13:00:47;;;;;;;2.30;1.50;;;14.40;35.40;;;;;;5033384;28;20045;-67
2021/04/15 13:03:34;;;;;;;3.33;1.70;;;14.40;39.20;;;;;;5033404;28;20433;-67
2021/04/15 13:06:06;;;;;;;2.47;1.60;;;14.50;39.60;;;;;;5032807;28;20037;-67
2021/04/15 13:08:34;;;;;;;3.30;1.65;;;14.60;37.80;;;;;;5030910;28;20650;-68
2021/04/15 13:11:33;;;;;;;5.18;1.92;;;14.60;38.10;;;;;;5032769;28;20026;-67
2021/04/15 13:14:06;;;;;;;3.38;1.98;;;14.50;34.80;;;;;;5029875;28;20125;-67
2021/04/15 13:16:34;;;;;;;2.92;1.40;;;14.50;36.00;;;;;;5032664;28;20036;-68
2021/04/15 13:19:09;;;;;;;2.72;1.80;;;14.50;38.10;;;;;;5032713;28;20052;-68
2021/04/15 13:21:37;;;;;;;2.28;1.40;;;14.40;38.50;;;;;;5032913;28;20124;-68
2021/04/15 13:25:01;;;;;;;2.10;1.55;;;14.30;35.80;;;;;;5031471;28;20026;-67
2021/04/15 13:27:36;;;;;;;1.60;1.35;;;14.30;36.30;;;;;;4951191;29;20027;-67
2021/04/15 13:30:19;;;;;;;4.63;1.73;;;14.30;37.40;;;;;;4951773;29;20066;-68
2021/04/15 13:33:12;;;;;;;;;;;14.40;36.40;;;;;;5003841;28;20041;-67
2021/04/15 13:35:50;;;;;;;5.97;1.98;;;14.40;37.60;;;;;;5031177;28;19996;-67
2021/04/15 13:40:57;;;;;;;3.88;1.77;;;14.30;35.40;;;;;;5032031;28;20116;-67
2021/04/15 13:43:40;;;;;;;2.00;1.27;;;14.30;38.30;;;;;;5032338;28;20441;-67
2021/04/15 13:46:21;;;;;;;3.85;2.00;;;14.30;38.80;;;;;;5032113;28;20053;-68
2021/04/15 13:48:50;;;;;;;3.38;1.50;;;14.20;37.10;;;;;;5032581;28;20037;-68
2021/04/15 13:51:21;;;;;;;3.33;2.00;;;14.10;36.60;;;;;;5032663;28;20057;-67
2021/04/15 13:53:58;;;;;;;2.40;1.57;;;14.10;38.80;;;;;;5032961;28;20366;-68
2021/04/15 13:56:30;;;;;;;2.80;1.65;;;14.10;40.40;;;;;;5031850;28;20022;-68